sensor_id;sensor_type;location;lat;lon;timestamp;temperature;humidity
53643;DHT22;39546;45.534;12.048;2022-11-11T00:00:48;13.90;85.30
53643;DHT22;39546;45.534;12.048;2022-11-11T00:07:08;13.90;85.40
53643;DHT22;39546;45.534;12.048;2022-11-11T00:13:30;13.80;85.10
53643;DHT22;39546;45.534;12.048;2022-11-11T00:19:50;13.80;85.10
53643;DHT22;39546;45.534;12.048;2022-11-11T00:26:28;13.70;85.40
53643;DHT22;39546;45.534;12.048;2022-11-11T00:32:51;13.70;85.20
53643;DHT22;39546;45.534;12.048;2022-11-11T00:39:11;13.70;85.10
53643;DHT22;39546;45.534;12.048;2022-11-11T00:45:31;13.70;85.10
53643;DHT22;39546;45.534;12.048;2022-11-11T00:51:52;13.70;85.10
53643;DHT22;39546;45.534;12.048;2022-11-11T00:58:12;13.60;85.10
53643;DHT22;39546;45.534;12.048;2022-11-11T01:04:32;13.60;85.10
53643;DHT22;39546;45.534;12.048;2022-11-11T01:11:20;13.50;85.10
53643;DHT22;39546;45.534;12.048;2022-11-11T01:17:41;13.50;85.00
53643;DHT22;39546;45.534;12.048;2022-11-11T01:24:01;13.30;85.10
53643;DHT22;39546;45.534;12.048;2022-11-11T01:30:21;13.30;85.20
53643;DHT22;39546;45.534;12.048;2022-11-11T01:37:01;13.40;84.90
53643;DHT22;39546;45.534;12.048;2022-11-11T01:43:23;13.30;84.70
53643;DHT22;39546;45.534;12.048;2022-11-11T01:49:53;13.00;85.10
53643;DHT22;39546;45.534;12.048;2022-11-11T01:56:15;13.00;85.10
53643;DHT22;39546;45.534;12.048;2022-11-11T02:02:39;13.00;85.10
53643;DHT22;39546;45.534;12.048;2022-11-11T02:09:00;13.00;85.00
53643;DHT22;39546;45.534;12.048;2022-11-11T02:15:20;13.10;85.10
53643;DHT22;39546;45.534;12.048;2022-11-11T02:21:46;12.90;85.00
53643;DHT22;39546;45.534;12.048;2022-11-11T02:28:11;12.80;85.10
53643;DHT22;39546;45.534;12.048;2022-11-11T02:34:33;12.80;84.90
53643;DHT22;39546;45.534;12.048;2022-11-11T02:40:53;12.70;85.00
53643;DHT22;39546;45.534;12.048;2022-11-11T02:47:33;12.60;85.10
53643;DHT22;39546;45.534;12.048;2022-11-11T02:53:53;12.70;85.00
53643;DHT22;39546;45.534;12.048;2022-11-11T03:00:17;12.60;84.90
53643;DHT22;39546;45.534;12.048;2022-11-11T03:06:37;12.60;85.00
53643;DHT22;39546;45.534;12.048;2022-11-11T03:13:01;12.70;84.80
53643;DHT22;39546;45.534;12.048;2022-11-11T03:19:21;12.60;84.90
53643;DHT22;39546;45.534;12.048;2022-11-11T03:25:46;12.60;84.70
53643;DHT22;39546;45.534;12.048;2022-11-11T03:32:07;12.50;84.70
53643;DHT22;39546;45.534;12.048;2022-11-11T03:38:27;12.30;84.80
53643;DHT22;39546;45.534;12.048;2022-11-11T03:44:47;12.30;84.70
53643;DHT22;39546;45.534;12.048;2022-11-11T03:51:07;12.30;84.80
53643;DHT22;39546;45.534;12.048;2022-11-11T03:57:27;12.20;84.90
53643;DHT22;39546;45.534;12.048;2022-11-11T04:04:16;12.20;84.80
53643;DHT22;39546;45.534;12.048;2022-11-11T04:10:55;12.20;84.90
53643;DHT22;39546;45.534;12.048;2022-11-11T04:17:15;12.20;84.80
53643;DHT22;39546;45.534;12.048;2022-11-11T04:23:36;12.20;84.80
53643;DHT22;39546;45.534;12.048;2022-11-11T04:29:56;12.20;84.60
53643;DHT22;39546;45.534;12.048;2022-11-11T04:36:16;12.20;84.50
53643;DHT22;39546;45.534;12.048;2022-11-11T04:42:37;12.20;84.50
53643;DHT22;39546;45.534;12.048;2022-11-11T04:48:58;12.20;84.60
53643;DHT22;39546;45.534;12.048;2022-11-11T04:55:18;12.20;84.80
53643;DHT22;39546;45.534;12.048;2022-11-11T05:02:02;12.10;84.70
53643;DHT22;39546;45.534;12.048;2022-11-11T05:08:43;12.20;84.90
53643;DHT22;39546;45.534;12.048;2022-11-11T05:15:15;12.10;84.70
53643;DHT22;39546;45.534;12.048;2022-11-11T05:21:56;11.90;84.90
53643;DHT22;39546;45.534;12.048;2022-11-11T05:28:19;12.00;85.00
53643;DHT22;39546;45.534;12.048;2022-11-11T05:34:44;12.00;84.90
53643;DHT22;39546;45.534;12.048;2022-11-11T05:41:05;12.00;84.70
53643;DHT22;39546;45.534;12.048;2022-11-11T05:47:42;11.90;84.70
53643;DHT22;39546;45.534;12.048;2022-11-11T05:54:03;11.90;84.70
53643;DHT22;39546;45.534;12.048;2022-11-11T06:00:23;12.10;84.40
53643;DHT22;39546;45.534;12.048;2022-11-11T06:06:43;12.30;84.00
53643;DHT22;39546;45.534;12.048;2022-11-11T06:13:22;12.10;84.00
53643;DHT22;39546;45.534;12.048;2022-11-11T06:19:42;12.20;84.00
53643;DHT22;39546;45.534;12.048;2022-11-11T06:26:03;12.10;84.10
53643;DHT22;39546;45.534;12.048;2022-11-11T06:32:33;12.10;84.20
53643;DHT22;39546;45.534;12.048;2022-11-11T06:38:53;12.20;83.90
53643;DHT22;39546;45.534;12.048;2022-11-11T06:45:15;12.20;83.80
53643;DHT22;39546;45.534;12.048;2022-11-11T06:51:36;12.00;84.20
53643;DHT22;39546;45.534;12.048;2022-11-11T06:58:04;12.20;84.10
53643;DHT22;39546;45.534;12.048;2022-11-11T07:04:24;12.40;83.80
53643;DHT22;39546;45.534;12.048;2022-11-11T07:10:48;12.80;83.90
53643;DHT22;39546;45.534;12.048;2022-11-11T07:17:11;12.90;83.50
53643;DHT22;39546;45.534;12.048;2022-11-11T07:23:32;12.80;83.50
53643;DHT22;39546;45.534;12.048;2022-11-11T07:29:52;12.50;84.30
53643;DHT22;39546;45.534;12.048;2022-11-11T07:36:12;12.90;84.70
53643;DHT22;39546;45.534;12.048;2022-11-11T07:42:35;13.30;84.50
53643;DHT22;39546;45.534;12.048;2022-11-11T07:48:56;13.50;84.20
53643;DHT22;39546;45.534;12.048;2022-11-11T07:55:27;13.20;84.40
53643;DHT22;39546;45.534;12.048;2022-11-11T08:01:48;13.30;85.10
53643;DHT22;39546;45.534;12.048;2022-11-11T08:08:09;13.50;85.00
53643;DHT22;39546;45.534;12.048;2022-11-11T08:14:29;13.70;85.30
53643;DHT22;39546;45.534;12.048;2022-11-11T08:20:50;13.80;85.40
53643;DHT22;39546;45.534;12.048;2022-11-11T08:27:10;14.00;85.70
53643;DHT22;39546;45.534;12.048;2022-11-11T08:33:30;14.00;85.80
53643;DHT22;39546;45.534;12.048;2022-11-11T08:40:14;14.10;86.00
53643;DHT22;39546;45.534;12.048;2022-11-11T08:46:35;14.20;86.20
53643;DHT22;39546;45.534;12.048;2022-11-11T08:52:55;14.20;86.40
53643;DHT22;39546;45.534;12.048;2022-11-11T08:59:17;14.30;86.70
53643;DHT22;39546;45.534;12.048;2022-11-11T09:05:38;14.40;87.00
53643;DHT22;39546;45.534;12.048;2022-11-11T09:11:58;14.40;87.40
53643;DHT22;39546;45.534;12.048;2022-11-11T09:18:18;14.40;87.60
53643;DHT22;39546;45.534;12.048;2022-11-11T09:24:39;14.50;87.80
53643;DHT22;39546;45.534;12.048;2022-11-11T09:31:00;14.60;87.80
53643;DHT22;39546;45.534;12.048;2022-11-11T09:37:21;14.70;87.80
53643;DHT22;39546;45.534;12.048;2022-11-11T09:50:21;14.90;87.80
53643;DHT22;39546;45.534;12.048;2022-11-11T09:56:43;14.90;87.80
53643;DHT22;39546;45.534;12.048;2022-11-11T10:16:56;15.30;87.90
53643;DHT22;39546;45.534;12.048;2022-11-11T10:23:24;15.40;88.00
53643;DHT22;39546;45.534;12.048;2022-11-11T10:29:45;15.50;88.00
53643;DHT22;39546;45.534;12.048;2022-11-11T10:36:14;15.60;87.80
53643;DHT22;39546;45.534;12.048;2022-11-11T10:42:35;15.70;87.70
53643;DHT22;39546;45.534;12.048;2022-11-11T10:55:32;16.00;87.60
53643;DHT22;39546;45.534;12.048;2022-11-11T11:01:57;16.00;87.50
53643;DHT22;39546;45.534;12.048;2022-11-11T11:08:23;16.20;87.40
53643;DHT22;39546;45.534;12.048;2022-11-11T11:14:49;16.30;87.40
53643;DHT22;39546;45.534;12.048;2022-11-11T11:21:12;16.50;87.10
53643;DHT22;39546;45.534;12.048;2022-11-11T11:27:32;16.50;86.90
53643;DHT22;39546;45.534;12.048;2022-11-11T11:33:56;16.60;87.00
53643;DHT22;39546;45.534;12.048;2022-11-11T11:40:17;16.60;87.30
53643;DHT22;39546;45.534;12.048;2022-11-11T11:46:39;16.50;87.30
53643;DHT22;39546;45.534;12.048;2022-11-11T12:26:17;16.70;87.70
53643;DHT22;39546;45.534;12.048;2022-11-11T12:59:17;16.80;88.00
53643;DHT22;39546;45.534;12.048;2022-11-11T13:06:03;17.00;87.80
53643;DHT22;39546;45.534;12.048;2022-11-11T13:12:35;17.00;87.60
53643;DHT22;39546;45.534;12.048;2022-11-11T13:19:10;17.00;87.90
53643;DHT22;39546;45.534;12.048;2022-11-11T13:25:37;17.00;87.80
53643;DHT22;39546;45.534;12.048;2022-11-11T13:32:01;17.00;88.00
53643;DHT22;39546;45.534;12.048;2022-11-11T13:45:43;17.00;88.20
53643;DHT22;39546;45.534;12.048;2022-11-11T13:52:53;17.20;88.20
53643;DHT22;39546;45.534;12.048;2022-11-11T13:59:22;17.20;88.10
53643;DHT22;39546;45.534;12.048;2022-11-11T14:05:44;17.20;88.40
53643;DHT22;39546;45.534;12.048;2022-11-11T14:12:21;17.10;88.60
53643;DHT22;39546;45.534;12.048;2022-11-11T14:18:42;17.00;88.60
53643;DHT22;39546;45.534;12.048;2022-11-11T14:25:25;17.00;88.70
53643;DHT22;39546;45.534;12.048;2022-11-11T14:31:53;17.00;88.90
53643;DHT22;39546;45.534;12.048;2022-11-11T14:38:46;17.00;88.90
53643;DHT22;39546;45.534;12.048;2022-11-11T14:51:56;17.00;89.10
53643;DHT22;39546;45.534;12.048;2022-11-11T14:58:19;16.90;89.20
53643;DHT22;39546;45.534;12.048;2022-11-11T15:04:40;16.80;89.30
53643;DHT22;39546;45.534;12.048;2022-11-11T15:11:32;16.70;89.50
53643;DHT22;39546;45.534;12.048;2022-11-11T15:38:20;16.40;90.00
53643;DHT22;39546;45.534;12.048;2022-11-11T15:44:42;16.30;90.00
53643;DHT22;39546;45.534;12.048;2022-11-11T15:51:28;16.20;90.10
53643;DHT22;39546;45.534;12.048;2022-11-11T15:57:49;16.10;90.20
53643;DHT22;39546;45.534;12.048;2022-11-11T16:04:13;16.00;90.10
53643;DHT22;39546;45.534;12.048;2022-11-11T16:10:37;16.00;90.20
53643;DHT22;39546;45.534;12.048;2022-11-11T16:17:03;16.00;90.30
53643;DHT22;39546;45.534;12.048;2022-11-11T16:23:24;15.90;90.00
53643;DHT22;39546;45.534;12.048;2022-11-11T16:29:44;15.80;90.10
53643;DHT22;39546;45.534;12.048;2022-11-11T16:36:09;15.80;90.10
53643;DHT22;39546;45.534;12.048;2022-11-11T16:42:30;15.70;90.00
53643;DHT22;39546;45.534;12.048;2022-11-11T16:48:52;15.50;90.10
53643;DHT22;39546;45.534;12.048;2022-11-11T16:55:51;15.30;90.10
53643;DHT22;39546;45.534;12.048;2022-11-11T17:02:18;15.40;90.00
53643;DHT22;39546;45.534;12.048;2022-11-11T17:08:44;15.50;89.70
53643;DHT22;39546;45.534;12.048;2022-11-11T17:15:06;15.50;89.50
53643;DHT22;39546;45.534;12.048;2022-11-11T17:21:28;15.50;89.40
53643;DHT22;39546;45.534;12.048;2022-11-11T17:28:11;15.30;89.20
53643;DHT22;39546;45.534;12.048;2022-11-11T17:34:38;15.30;89.10
53643;DHT22;39546;45.534;12.048;2022-11-11T17:40:59;15.30;89.10
53643;DHT22;39546;45.534;12.048;2022-11-11T17:47:23;15.20;89.00
53643;DHT22;39546;45.534;12.048;2022-11-11T17:53:44;15.10;88.80
53643;DHT22;39546;45.534;12.048;2022-11-11T18:00:11;15.10;88.70
53643;DHT22;39546;45.534;12.048;2022-11-11T18:06:32;15.00;88.50
53643;DHT22;39546;45.534;12.048;2022-11-11T18:12:52;14.90;88.40
53643;DHT22;39546;45.534;12.048;2022-11-11T18:19:18;14.80;88.30
53643;DHT22;39546;45.534;12.048;2022-11-11T18:25:38;14.80;88.00
53643;DHT22;39546;45.534;12.048;2022-11-11T18:32:01;14.70;87.90
53643;DHT22;39546;45.534;12.048;2022-11-11T18:38:21;14.70;87.90
53643;DHT22;39546;45.534;12.048;2022-11-11T18:44:42;14.60;87.80
53643;DHT22;39546;45.534;12.048;2022-11-11T18:51:03;14.60;87.70
53643;DHT22;39546;45.534;12.048;2022-11-11T18:57:23;14.50;87.60
53643;DHT22;39546;45.534;12.048;2022-11-11T19:03:43;14.30;87.80
53643;DHT22;39546;45.534;12.048;2022-11-11T19:10:04;14.40;87.70
53643;DHT22;39546;45.534;12.048;2022-11-11T19:16:25;14.40;87.60
53643;DHT22;39546;45.534;12.048;2022-11-11T19:22:44;14.40;87.50
53643;DHT22;39546;45.534;12.048;2022-11-11T19:29:05;14.40;87.40
53643;DHT22;39546;45.534;12.048;2022-11-11T19:35:26;14.30;87.20
53643;DHT22;39546;45.534;12.048;2022-11-11T19:41:46;14.20;87.20
53643;DHT22;39546;45.534;12.048;2022-11-11T19:48:06;14.20;87.20
53643;DHT22;39546;45.534;12.048;2022-11-11T19:54:26;14.00;87.50
53643;DHT22;39546;45.534;12.048;2022-11-11T20:00:47;14.00;87.50
53643;DHT22;39546;45.534;12.048;2022-11-11T20:07:08;13.70;87.60
53643;DHT22;39546;45.534;12.048;2022-11-11T20:13:28;13.70;87.80
53643;DHT22;39546;45.534;12.048;2022-11-11T20:19:48;13.60;87.60
53643;DHT22;39546;45.534;12.048;2022-11-11T20:26:11;13.50;87.90
53643;DHT22;39546;45.534;12.048;2022-11-11T20:32:31;13.70;87.70
53643;DHT22;39546;45.534;12.048;2022-11-11T20:38:51;13.70;87.50
53643;DHT22;39546;45.534;12.048;2022-11-11T20:45:12;13.60;87.60
53643;DHT22;39546;45.534;12.048;2022-11-11T20:51:40;13.60;87.50
53643;DHT22;39546;45.534;12.048;2022-11-11T20:58:00;13.60;87.50
53643;DHT22;39546;45.534;12.048;2022-11-11T21:04:20;13.70;87.30
53643;DHT22;39546;45.534;12.048;2022-11-11T21:10:40;13.70;87.30
53643;DHT22;39546;45.534;12.048;2022-11-11T21:17:16;13.70;87.50
53643;DHT22;39546;45.534;12.048;2022-11-11T21:23:37;13.70;87.20
53643;DHT22;39546;45.534;12.048;2022-11-11T21:29:58;13.60;87.00
53643;DHT22;39546;45.534;12.048;2022-11-11T21:36:20;13.40;87.00
53643;DHT22;39546;45.534;12.048;2022-11-11T21:42:41;13.30;87.30
53643;DHT22;39546;45.534;12.048;2022-11-11T21:49:03;13.30;86.90
53643;DHT22;39546;45.534;12.048;2022-11-11T21:55:23;13.50;86.80
53643;DHT22;39546;45.534;12.048;2022-11-11T22:01:44;13.40;86.70
53643;DHT22;39546;45.534;12.048;2022-11-11T22:08:04;13.20;86.70
53643;DHT22;39546;45.534;12.048;2022-11-11T22:14:25;13.30;86.60
53643;DHT22;39546;45.534;12.048;2022-11-11T22:20:52;13.30;86.20
53643;DHT22;39546;45.534;12.048;2022-11-11T22:27:12;13.30;86.10
53643;DHT22;39546;45.534;12.048;2022-11-11T22:33:32;13.20;86.20
53643;DHT22;39546;45.534;12.048;2022-11-11T22:39:52;13.20;86.10
53643;DHT22;39546;45.534;12.048;2022-11-11T22:46:14;13.20;85.90
53643;DHT22;39546;45.534;12.048;2022-11-11T22:52:35;13.20;85.70
53643;DHT22;39546;45.534;12.048;2022-11-11T22:58:56;13.10;85.70
53643;DHT22;39546;45.534;12.048;2022-11-11T23:05:16;13.00;85.80
53643;DHT22;39546;45.534;12.048;2022-11-11T23:11:38;12.90;85.90
53643;DHT22;39546;45.534;12.048;2022-11-11T23:17:59;12.90;85.90
53643;DHT22;39546;45.534;12.048;2022-11-11T23:24:22;12.80;85.70
53643;DHT22;39546;45.534;12.048;2022-11-11T23:30:42;12.80;85.80
53643;DHT22;39546;45.534;12.048;2022-11-11T23:37:03;12.70;85.70
53643;DHT22;39546;45.534;12.048;2022-11-11T23:43:24;12.80;85.60
53643;DHT22;39546;45.534;12.048;2022-11-11T23:49:45;12.80;85.40
53643;DHT22;39546;45.534;12.048;2022-11-11T23:56:06;12.60;85.40
